sensor_id;sensor_type;location;lat;lon;timestamp;temperature;humidity
20534;DHT22;12929;56.822;26.056;2023-08-12T00:01:18;14.60;99.90
20534;DHT22;12929;56.822;26.056;2023-08-12T00:03:48;14.50;99.90
20534;DHT22;12929;56.822;26.056;2023-08-12T00:06:16;14.40;99.90
20534;DHT22;12929;56.822;26.056;2023-08-12T00:08:43;14.50;99.90
20534;DHT22;12929;56.822;26.056;2023-08-12T00:11:11;14.40;99.90
20534;DHT22;12929;56.822;26.056;2023-08-12T00:13:38;14.50;99.90
20534;DHT22;12929;56.822;26.056;2023-08-12T00:16:06;14.40;99.90
20534;DHT22;12929;56.822;26.056;2023-08-12T00:18:34;14.30;99.90
20534;DHT22;12929;56.822;26.056;2023-08-12T00:21:07;14.40;99.90
20534;DHT22;12929;56.822;26.056;2023-08-12T00:23:39;14.40;99.90
20534;DHT22;12929;56.822;26.056;2023-08-12T00:26:11;14.50;99.90
20534;DHT22;12929;56.822;26.056;2023-08-12T00:28:39;14.40;99.90
20534;DHT22;12929;56.822;26.056;2023-08-12T00:31:06;14.50;99.90
20534;DHT22;12929;56.822;26.056;2023-08-12T00:33:34;14.50;99.90
20534;DHT22;12929;56.822;26.056;2023-08-12T00:36:02;14.40;99.90
20534;DHT22;12929;56.822;26.056;2023-08-12T00:38:29;14.40;99.90
20534;DHT22;12929;56.822;26.056;2023-08-12T00:40:57;14.30;99.90
20534;DHT22;12929;56.822;26.056;2023-08-12T00:43:25;14.20;99.90
20534;DHT22;12929;56.822;26.056;2023-08-12T00:45:52;14.20;99.90
20534;DHT22;12929;56.822;26.056;2023-08-12T00:48:20;14.20;99.90
20534;DHT22;12929;56.822;26.056;2023-08-12T00:50:49;14.10;99.90
20534;DHT22;12929;56.822;26.056;2023-08-12T00:53:17;14.10;99.90
20534;DHT22;12929;56.822;26.056;2023-08-12T00:55:45;14.10;99.90
20534;DHT22;12929;56.822;26.056;2023-08-12T00:58:13;14.10;99.90
20534;DHT22;12929;56.822;26.056;2023-08-12T01:00:40;14.10;99.90
20534;DHT22;12929;56.822;26.056;2023-08-12T01:03:08;14.00;99.90
20534;DHT22;12929;56.822;26.056;2023-08-12T01:05:37;14.00;99.90
20534;DHT22;12929;56.822;26.056;2023-08-12T01:08:09;14.00;99.90
20534;DHT22;12929;56.822;26.056;2023-08-12T01:10:37;14.10;99.90
20534;DHT22;12929;56.822;26.056;2023-08-12T01:13:15;14.00;99.90
20534;DHT22;12929;56.822;26.056;2023-08-12T01:15:45;14.00;99.90
20534;DHT22;12929;56.822;26.056;2023-08-12T01:18:14;14.00;99.90
20534;DHT22;12929;56.822;26.056;2023-08-12T01:20:42;14.00;99.90
20534;DHT22;12929;56.822;26.056;2023-08-12T01:23:10;14.10;99.90
20534;DHT22;12929;56.822;26.056;2023-08-12T01:25:39;14.00;99.90
20534;DHT22;12929;56.822;26.056;2023-08-12T01:28:07;13.90;99.90
20534;DHT22;12929;56.822;26.056;2023-08-12T01:30:40;13.90;99.90
20534;DHT22;12929;56.822;26.056;2023-08-12T01:33:15;13.90;99.90
20534;DHT22;12929;56.822;26.056;2023-08-12T01:36:24;13.80;99.90
20534;DHT22;12929;56.822;26.056;2023-08-12T01:38:45;13.80;99.90
20534;DHT22;12929;56.822;26.056;2023-08-12T01:41:15;13.80;99.90
20534;DHT22;12929;56.822;26.056;2023-08-12T01:43:44;13.70;99.90
20534;DHT22;12929;56.822;26.056;2023-08-12T01:46:12;13.70;99.90
20534;DHT22;12929;56.822;26.056;2023-08-12T01:48:39;13.70;99.90
20534;DHT22;12929;56.822;26.056;2023-08-12T01:51:07;13.70;99.90
20534;DHT22;12929;56.822;26.056;2023-08-12T01:53:34;13.60;99.90
20534;DHT22;12929;56.822;26.056;2023-08-12T01:56:02;13.60;99.90
20534;DHT22;12929;56.822;26.056;2023-08-12T01:58:29;13.60;99.90
20534;DHT22;12929;56.822;26.056;2023-08-12T02:00:57;13.60;99.90
20534;DHT22;12929;56.822;26.056;2023-08-12T02:03:24;13.60;99.90
20534;DHT22;12929;56.822;26.056;2023-08-12T02:05:52;13.60;99.90
20534;DHT22;12929;56.822;26.056;2023-08-12T02:08:19;13.60;99.90
20534;DHT22;12929;56.822;26.056;2023-08-12T02:10:47;13.60;99.90
20534;DHT22;12929;56.822;26.056;2023-08-12T02:13:14;13.60;99.90
20534;DHT22;12929;56.822;26.056;2023-08-12T02:15:43;13.60;99.90
20534;DHT22;12929;56.822;26.056;2023-08-12T02:18:11;13.60;99.90
20534;DHT22;12929;56.822;26.056;2023-08-12T02:20:41;13.50;99.90
20534;DHT22;12929;56.822;26.056;2023-08-12T02:23:09;13.40;99.90
20534;DHT22;12929;56.822;26.056;2023-08-12T02:25:36;13.40;99.90
20534;DHT22;12929;56.822;26.056;2023-08-12T02:28:05;13.40;99.90
20534;DHT22;12929;56.822;26.056;2023-08-12T02:30:32;13.50;99.90
20534;DHT22;12929;56.822;26.056;2023-08-12T02:33:00;13.50;99.90
20534;DHT22;12929;56.822;26.056;2023-08-12T02:35:28;13.50;99.90
20534;DHT22;12929;56.822;26.056;2023-08-12T02:37:55;13.40;99.90
20534;DHT22;12929;56.822;26.056;2023-08-12T02:40:23;13.30;99.90
20534;DHT22;12929;56.822;26.056;2023-08-12T02:42:50;13.30;99.90
20534;DHT22;12929;56.822;26.056;2023-08-12T02:45:18;13.30;99.90
20534;DHT22;12929;56.822;26.056;2023-08-12T02:47:45;13.20;99.90
20534;DHT22;12929;56.822;26.056;2023-08-12T02:50:13;13.20;99.90
20534;DHT22;12929;56.822;26.056;2023-08-12T02:52:40;13.20;99.90
20534;DHT22;12929;56.822;26.056;2023-08-12T02:55:08;13.20;99.90
20534;DHT22;12929;56.822;26.056;2023-08-12T02:57:35;13.20;99.90
20534;DHT22;12929;56.822;26.056;2023-08-12T03:00:03;13.10;99.90
20534;DHT22;12929;56.822;26.056;2023-08-12T03:02:31;13.00;99.90
20534;DHT22;12929;56.822;26.056;2023-08-12T03:04:59;13.00;99.90
20534;DHT22;12929;56.822;26.056;2023-08-12T03:07:27;13.00;99.90
20534;DHT22;12929;56.822;26.056;2023-08-12T03:09:54;12.90;99.90
20534;DHT22;12929;56.822;26.056;2023-08-12T03:12:22;13.00;99.90
20534;DHT22;12929;56.822;26.056;2023-08-12T03:14:49;13.00;99.90
20534;DHT22;12929;56.822;26.056;2023-08-12T03:17:17;13.00;99.90
20534;DHT22;12929;56.822;26.056;2023-08-12T03:19:44;12.90;99.90
20534;DHT22;12929;56.822;26.056;2023-08-12T03:22:12;13.00;99.90
20534;DHT22;12929;56.822;26.056;2023-08-12T03:24:39;13.00;99.90
20534;DHT22;12929;56.822;26.056;2023-08-12T03:27:07;12.90;99.90
20534;DHT22;12929;56.822;26.056;2023-08-12T03:29:35;12.80;99.90
20534;DHT22;12929;56.822;26.056;2023-08-12T03:32:02;12.90;99.90
20534;DHT22;12929;56.822;26.056;2023-08-12T03:34:30;12.90;99.90
20534;DHT22;12929;56.822;26.056;2023-08-12T03:36:59;12.90;99.90
20534;DHT22;12929;56.822;26.056;2023-08-12T03:39:27;12.90;99.90
20534;DHT22;12929;56.822;26.056;2023-08-12T03:41:55;12.90;99.90
20534;DHT22;12929;56.822;26.056;2023-08-12T03:44:22;12.80;99.90
20534;DHT22;12929;56.822;26.056;2023-08-12T03:46:51;12.80;99.90
20534;DHT22;12929;56.822;26.056;2023-08-12T03:49:18;12.80;99.90
20534;DHT22;12929;56.822;26.056;2023-08-12T03:51:48;12.70;99.90
20534;DHT22;12929;56.822;26.056;2023-08-12T03:54:16;12.70;99.90
20534;DHT22;12929;56.822;26.056;2023-08-12T03:56:44;12.70;99.90
20534;DHT22;12929;56.822;26.056;2023-08-12T03:59:12;12.70;99.90
20534;DHT22;12929;56.822;26.056;2023-08-12T04:01:41;12.60;99.90
20534;DHT22;12929;56.822;26.056;2023-08-12T04:04:09;12.60;99.90
20534;DHT22;12929;56.822;26.056;2023-08-12T04:06:40;12.60;99.90
20534;DHT22;12929;56.822;26.056;2023-08-12T04:09:08;12.60;99.90
20534;DHT22;12929;56.822;26.056;2023-08-12T04:11:35;12.60;99.90
20534;DHT22;12929;56.822;26.056;2023-08-12T04:14:03;12.60;99.90
20534;DHT22;12929;56.822;26.056;2023-08-12T04:16:31;12.60;99.90
20534;DHT22;12929;56.822;26.056;2023-08-12T04:18:58;12.60;99.90
20534;DHT22;12929;56.822;26.056;2023-08-12T04:21:26;12.60;99.90
20534;DHT22;12929;56.822;26.056;2023-08-12T04:23:53;12.60;99.90
20534;DHT22;12929;56.822;26.056;2023-08-12T04:26:22;12.60;99.90
20534;DHT22;12929;56.822;26.056;2023-08-12T04:28:49;12.60;99.90
20534;DHT22;12929;56.822;26.056;2023-08-12T04:31:17;12.60;99.90
20534;DHT22;12929;56.822;26.056;2023-08-12T04:33:45;12.70;99.90
20534;DHT22;12929;56.822;26.056;2023-08-12T04:36:14;12.60;99.90
20534;DHT22;12929;56.822;26.056;2023-08-12T04:38:41;12.70;99.90
20534;DHT22;12929;56.822;26.056;2023-08-12T04:41:10;12.70;99.90
20534;DHT22;12929;56.822;26.056;2023-08-12T04:43:38;12.70;99.90
20534;DHT22;12929;56.822;26.056;2023-08-12T04:46:06;12.70;99.90
20534;DHT22;12929;56.822;26.056;2023-08-12T04:48:34;12.70;99.90
20534;DHT22;12929;56.822;26.056;2023-08-12T04:51:01;12.80;99.90
20534;DHT22;12929;56.822;26.056;2023-08-12T04:53:30;12.80;99.90
20534;DHT22;12929;56.822;26.056;2023-08-12T04:55:58;12.80;99.90
20534;DHT22;12929;56.822;26.056;2023-08-12T04:58:26;12.90;99.90
20534;DHT22;12929;56.822;26.056;2023-08-12T05:00:54;12.90;99.90
20534;DHT22;12929;56.822;26.056;2023-08-12T05:03:22;13.00;99.90
20534;DHT22;12929;56.822;26.056;2023-08-12T05:05:52;13.10;99.90
20534;DHT22;12929;56.822;26.056;2023-08-12T05:08:23;13.10;99.90
20534;DHT22;12929;56.822;26.056;2023-08-12T05:10:51;13.10;99.90
20534;DHT22;12929;56.822;26.056;2023-08-12T05:13:19;13.20;99.90
20534;DHT22;12929;56.822;26.056;2023-08-12T05:15:47;13.30;99.90
20534;DHT22;12929;56.822;26.056;2023-08-12T05:18:17;13.30;99.90
20534;DHT22;12929;56.822;26.056;2023-08-12T05:20:45;13.40;99.90
20534;DHT22;12929;56.822;26.056;2023-08-12T05:23:13;13.40;99.90
20534;DHT22;12929;56.822;26.056;2023-08-12T05:25:42;13.40;99.90
20534;DHT22;12929;56.822;26.056;2023-08-12T05:28:09;13.50;99.90
20534;DHT22;12929;56.822;26.056;2023-08-12T05:30:37;13.50;99.90
20534;DHT22;12929;56.822;26.056;2023-08-12T05:33:05;13.70;99.90
20534;DHT22;12929;56.822;26.056;2023-08-12T05:35:34;13.70;99.90
20534;DHT22;12929;56.822;26.056;2023-08-12T05:38:01;13.90;99.90
20534;DHT22;12929;56.822;26.056;2023-08-12T05:40:29;13.80;99.90
20534;DHT22;12929;56.822;26.056;2023-08-12T05:42:57;13.90;99.90
20534;DHT22;12929;56.822;26.056;2023-08-12T05:45:24;13.90;99.90
20534;DHT22;12929;56.822;26.056;2023-08-12T05:47:52;13.90;99.90
20534;DHT22;12929;56.822;26.056;2023-08-12T05:50:20;14.00;99.90
20534;DHT22;12929;56.822;26.056;2023-08-12T05:52:47;14.00;99.90
20534;DHT22;12929;56.822;26.056;2023-08-12T05:55:15;14.10;99.90
20534;DHT22;12929;56.822;26.056;2023-08-12T05:57:43;14.10;99.90
20534;DHT22;12929;56.822;26.056;2023-08-12T06:00:10;14.30;99.90
20534;DHT22;12929;56.822;26.056;2023-08-12T06:02:39;14.30;99.90
20534;DHT22;12929;56.822;26.056;2023-08-12T06:05:07;14.60;99.90
20534;DHT22;12929;56.822;26.056;2023-08-12T06:07:35;14.60;99.90
20534;DHT22;12929;56.822;26.056;2023-08-12T06:10:03;14.70;99.90
20534;DHT22;12929;56.822;26.056;2023-08-12T06:12:31;14.70;99.90
20534;DHT22;12929;56.822;26.056;2023-08-12T06:14:59;14.70;99.90
20534;DHT22;12929;56.822;26.056;2023-08-12T06:17:28;14.70;99.90
20534;DHT22;12929;56.822;26.056;2023-08-12T06:19:55;14.90;99.90
20534;DHT22;12929;56.822;26.056;2023-08-12T06:22:23;15.00;99.90
20534;DHT22;12929;56.822;26.056;2023-08-12T06:24:51;15.00;99.90
20534;DHT22;12929;56.822;26.056;2023-08-12T06:27:18;14.80;99.90
20534;DHT22;12929;56.822;26.056;2023-08-12T06:29:47;14.90;99.90
20534;DHT22;12929;56.822;26.056;2023-08-12T06:32:15;15.00;99.90
20534;DHT22;12929;56.822;26.056;2023-08-12T06:34:43;15.60;99.90
20534;DHT22;12929;56.822;26.056;2023-08-12T06:37:10;15.80;99.90
20534;DHT22;12929;56.822;26.056;2023-08-12T06:39:38;15.80;99.90
20534;DHT22;12929;56.822;26.056;2023-08-12T06:42:06;15.50;99.90
20534;DHT22;12929;56.822;26.056;2023-08-12T06:44:33;15.60;99.90
20534;DHT22;12929;56.822;26.056;2023-08-12T06:47:01;15.50;99.90
20534;DHT22;12929;56.822;26.056;2023-08-12T06:49:29;15.60;99.90
20534;DHT22;12929;56.822;26.056;2023-08-12T06:51:56;15.70;99.90
20534;DHT22;12929;56.822;26.056;2023-08-12T06:54:24;16.10;99.90
20534;DHT22;12929;56.822;26.056;2023-08-12T06:56:51;16.20;99.90
20534;DHT22;12929;56.822;26.056;2023-08-12T06:59:19;16.30;99.90
20534;DHT22;12929;56.822;26.056;2023-08-12T07:01:46;16.10;99.90
20534;DHT22;12929;56.822;26.056;2023-08-12T07:04:14;16.30;99.90
20534;DHT22;12929;56.822;26.056;2023-08-12T07:06:41;16.30;99.90
20534;DHT22;12929;56.822;26.056;2023-08-12T07:09:09;16.30;99.90
20534;DHT22;12929;56.822;26.056;2023-08-12T07:11:37;16.50;99.90
20534;DHT22;12929;56.822;26.056;2023-08-12T07:14:04;16.60;99.90
20534;DHT22;12929;56.822;26.056;2023-08-12T07:16:33;16.80;99.90
20534;DHT22;12929;56.822;26.056;2023-08-12T07:19:00;16.80;99.90
20534;DHT22;12929;56.822;26.056;2023-08-12T07:21:28;16.70;99.90
20534;DHT22;12929;56.822;26.056;2023-08-12T07:23:55;16.60;99.90
20534;DHT22;12929;56.822;26.056;2023-08-12T07:26:30;16.60;99.90
20534;DHT22;12929;56.822;26.056;2023-08-12T07:28:58;16.90;99.90
20534;DHT22;12929;56.822;26.056;2023-08-12T07:31:25;16.80;99.90
20534;DHT22;12929;56.822;26.056;2023-08-12T07:33:53;16.80;99.90
20534;DHT22;12929;56.822;26.056;2023-08-12T07:36:20;16.90;99.90
20534;DHT22;12929;56.822;26.056;2023-08-12T07:38:48;16.90;99.90
20534;DHT22;12929;56.822;26.056;2023-08-12T07:41:15;16.90;99.90
20534;DHT22;12929;56.822;26.056;2023-08-12T07:43:43;17.10;99.90
20534;DHT22;12929;56.822;26.056;2023-08-12T07:46:10;17.10;99.90
20534;DHT22;12929;56.822;26.056;2023-08-12T07:48:38;17.10;99.90
20534;DHT22;12929;56.822;26.056;2023-08-12T07:51:06;17.10;99.90
20534;DHT22;12929;56.822;26.056;2023-08-12T07:53:33;17.20;99.90
20534;DHT22;12929;56.822;26.056;2023-08-12T07:56:01;17.20;99.90
20534;DHT22;12929;56.822;26.056;2023-08-12T07:58:30;17.40;99.90
20534;DHT22;12929;56.822;26.056;2023-08-12T08:00:57;17.50;99.90
20534;DHT22;12929;56.822;26.056;2023-08-12T08:03:25;17.50;99.90
20534;DHT22;12929;56.822;26.056;2023-08-12T08:05:52;17.60;99.90
20534;DHT22;12929;56.822;26.056;2023-08-12T08:08:20;17.70;99.90
20534;DHT22;12929;56.822;26.056;2023-08-12T08:10:48;17.70;99.90
20534;DHT22;12929;56.822;26.056;2023-08-12T08:13:15;17.60;99.90
20534;DHT22;12929;56.822;26.056;2023-08-12T08:15:43;17.70;99.90
20534;DHT22;12929;56.822;26.056;2023-08-12T08:18:10;17.80;99.90
20534;DHT22;12929;56.822;26.056;2023-08-12T08:20:38;17.90;99.90
20534;DHT22;12929;56.822;26.056;2023-08-12T08:23:06;17.90;99.90
20534;DHT22;12929;56.822;26.056;2023-08-12T08:25:33;17.90;99.90
20534;DHT22;12929;56.822;26.056;2023-08-12T08:28:01;18.10;99.90
20534;DHT22;12929;56.822;26.056;2023-08-12T08:30:28;18.20;99.90
20534;DHT22;12929;56.822;26.056;2023-08-12T08:32:56;18.40;99.90
20534;DHT22;12929;56.822;26.056;2023-08-12T08:35:24;18.60;99.90
20534;DHT22;12929;56.822;26.056;2023-08-12T08:37:52;18.50;99.90
20534;DHT22;12929;56.822;26.056;2023-08-12T08:40:20;18.30;99.90
20534;DHT22;12929;56.822;26.056;2023-08-12T08:42:51;18.20;99.90
20534;DHT22;12929;56.822;26.056;2023-08-12T08:45:32;18.30;99.90
20534;DHT22;12929;56.822;26.056;2023-08-12T08:48:05;18.30;99.90
20534;DHT22;12929;56.822;26.056;2023-08-12T08:50:36;18.60;99.90
20534;DHT22;12929;56.822;26.056;2023-08-12T08:53:06;18.60;99.90
20534;DHT22;12929;56.822;26.056;2023-08-12T08:55:34;18.70;99.90
20534;DHT22;12929;56.822;26.056;2023-08-12T08:58:04;18.70;99.90
20534;DHT22;12929;56.822;26.056;2023-08-12T09:00:36;18.90;99.90
20534;DHT22;12929;56.822;26.056;2023-08-12T09:03:05;19.10;99.90
20534;DHT22;12929;56.822;26.056;2023-08-12T09:05:35;19.10;99.90
20534;DHT22;12929;56.822;26.056;2023-08-12T09:08:06;19.20;99.90
20534;DHT22;12929;56.822;26.056;2023-08-12T09:10:39;19.00;99.90
20534;DHT22;12929;56.822;26.056;2023-08-12T09:13:07;18.90;99.90
20534;DHT22;12929;56.822;26.056;2023-08-12T09:15:36;18.80;99.90
20534;DHT22;12929;56.822;26.056;2023-08-12T09:18:07;18.80;99.90
20534;DHT22;12929;56.822;26.056;2023-08-12T09:20:34;18.80;99.90
20534;DHT22;12929;56.822;26.056;2023-08-12T09:23:03;18.70;99.90
20534;DHT22;12929;56.822;26.056;2023-08-12T09:25:31;18.60;99.90
20534;DHT22;12929;56.822;26.056;2023-08-12T09:27:59;18.50;99.90
20534;DHT22;12929;56.822;26.056;2023-08-12T09:30:30;18.50;99.90
20534;DHT22;12929;56.822;26.056;2023-08-12T09:33:03;18.60;99.90
20534;DHT22;12929;56.822;26.056;2023-08-12T09:35:36;18.90;99.90
20534;DHT22;12929;56.822;26.056;2023-08-12T09:38:06;19.10;99.90
20534;DHT22;12929;56.822;26.056;2023-08-12T09:40:36;19.40;99.90
20534;DHT22;12929;56.822;26.056;2023-08-12T09:43:04;19.40;99.90
20534;DHT22;12929;56.822;26.056;2023-08-12T09:45:40;19.40;99.90
20534;DHT22;12929;56.822;26.056;2023-08-12T09:48:11;19.60;99.90
20534;DHT22;12929;56.822;26.056;2023-08-12T09:50:44;19.80;99.90
20534;DHT22;12929;56.822;26.056;2023-08-12T09:53:12;20.00;99.90
20534;DHT22;12929;56.822;26.056;2023-08-12T09:55:42;20.00;99.90
20534;DHT22;12929;56.822;26.056;2023-08-12T09:58:12;20.20;99.90
20534;DHT22;12929;56.822;26.056;2023-08-12T10:00:44;20.30;99.90
20534;DHT22;12929;56.822;26.056;2023-08-12T10:03:18;20.40;99.90
20534;DHT22;12929;56.822;26.056;2023-08-12T10:05:48;20.30;99.90
20534;DHT22;12929;56.822;26.056;2023-08-12T10:08:18;20.30;99.90
20534;DHT22;12929;56.822;26.056;2023-08-12T10:10:48;20.40;99.90
20534;DHT22;12929;56.822;26.056;2023-08-12T10:13:34;20.50;99.90
20534;DHT22;12929;56.822;26.056;2023-08-12T10:16:03;20.50;99.90
20534;DHT22;12929;56.822;26.056;2023-08-12T10:18:31;20.60;99.90
20534;DHT22;12929;56.822;26.056;2023-08-12T10:21:03;20.60;99.90
20534;DHT22;12929;56.822;26.056;2023-08-12T10:23:32;20.70;99.90
20534;DHT22;12929;56.822;26.056;2023-08-12T10:26:01;20.70;99.90
20534;DHT22;12929;56.822;26.056;2023-08-12T10:28:31;20.70;99.90
20534;DHT22;12929;56.822;26.056;2023-08-12T10:31:08;20.90;99.90
20534;DHT22;12929;56.822;26.056;2023-08-12T10:33:40;20.80;99.90
20534;DHT22;12929;56.822;26.056;2023-08-12T10:36:09;20.80;99.90
20534;DHT22;12929;56.822;26.056;2023-08-12T10:38:37;20.90;99.90
20534;DHT22;12929;56.822;26.056;2023-08-12T10:41:20;20.80;99.90
20534;DHT22;12929;56.822;26.056;2023-08-12T10:46:36;21.20;99.90
20534;DHT22;12929;56.822;26.056;2023-08-12T10:49:11;21.40;99.90
20534;DHT22;12929;56.822;26.056;2023-08-12T10:51:59;21.30;99.90
20534;DHT22;12929;56.822;26.056;2023-08-12T10:54:30;21.30;99.90
20534;DHT22;12929;56.822;26.056;2023-08-12T10:57:10;21.20;99.90
20534;DHT22;12929;56.822;26.056;2023-08-12T11:02:34;20.80;99.90
20534;DHT22;12929;56.822;26.056;2023-08-12T11:05:10;20.60;99.90
20534;DHT22;12929;56.822;26.056;2023-08-12T11:07:59;20.50;99.90
20534;DHT22;12929;56.822;26.056;2023-08-12T11:10:37;20.40;99.90
20534;DHT22;12929;56.822;26.056;2023-08-12T11:13:05;20.20;99.90
20534;DHT22;12929;56.822;26.056;2023-08-12T11:15:45;20.20;99.90
20534;DHT22;12929;56.822;26.056;2023-08-12T11:18:17;20.20;99.90
20534;DHT22;12929;56.822;26.056;2023-08-12T11:20:48;20.40;99.90
20534;DHT22;12929;56.822;26.056;2023-08-12T11:23:17;20.60;99.90
20534;DHT22;12929;56.822;26.056;2023-08-12T11:25:50;21.10;99.90
20534;DHT22;12929;56.822;26.056;2023-08-12T11:28:18;21.20;99.90
20534;DHT22;12929;56.822;26.056;2023-08-12T11:30:48;21.20;99.90
20534;DHT22;12929;56.822;26.056;2023-08-12T11:33:17;21.50;99.90
20534;DHT22;12929;56.822;26.056;2023-08-12T11:35:56;21.50;99.90
20534;DHT22;12929;56.822;26.056;2023-08-12T11:38:25;21.30;99.90
20534;DHT22;12929;56.822;26.056;2023-08-12T11:40:56;21.00;99.90
20534;DHT22;12929;56.822;26.056;2023-08-12T11:43:24;20.90;99.90
20534;DHT22;12929;56.822;26.056;2023-08-12T11:45:55;20.80;99.90
20534;DHT22;12929;56.822;26.056;2023-08-12T11:48:27;20.70;99.90
20534;DHT22;12929;56.822;26.056;2023-08-12T11:51:00;20.60;99.90
20534;DHT22;12929;56.822;26.056;2023-08-12T11:53:29;20.50;99.90
20534;DHT22;12929;56.822;26.056;2023-08-12T11:55:57;20.50;99.90
20534;DHT22;12929;56.822;26.056;2023-08-12T11:58:25;20.40;99.90
20534;DHT22;12929;56.822;26.056;2023-08-12T12:01:05;20.40;99.90
20534;DHT22;12929;56.822;26.056;2023-08-12T12:03:34;20.40;99.90
20534;DHT22;12929;56.822;26.056;2023-08-12T12:06:03;20.40;99.90
20534;DHT22;12929;56.822;26.056;2023-08-12T12:08:31;20.50;99.90
20534;DHT22;12929;56.822;26.056;2023-08-12T12:11:06;20.50;99.90
20534;DHT22;12929;56.822;26.056;2023-08-12T12:13:34;20.50;99.90
20534;DHT22;12929;56.822;26.056;2023-08-12T12:16:02;20.40;99.90
20534;DHT22;12929;56.822;26.056;2023-08-12T12:18:33;20.40;99.90
20534;DHT22;12929;56.822;26.056;2023-08-12T12:21:05;20.40;99.90
20534;DHT22;12929;56.822;26.056;2023-08-12T12:23:32;20.50;99.90
20534;DHT22;12929;56.822;26.056;2023-08-12T12:26:03;20.50;99.90
20534;DHT22;12929;56.822;26.056;2023-08-12T12:28:31;20.60;99.90
20534;DHT22;12929;56.822;26.056;2023-08-12T12:31:00;20.60;99.90
20534;DHT22;12929;56.822;26.056;2023-08-12T12:33:32;20.60;99.90
20534;DHT22;12929;56.822;26.056;2023-08-12T12:36:00;20.50;99.90
20534;DHT22;12929;56.822;26.056;2023-08-12T12:38:32;20.50;99.90
20534;DHT22;12929;56.822;26.056;2023-08-12T12:41:02;20.70;99.90
20534;DHT22;12929;56.822;26.056;2023-08-12T12:43:29;21.20;99.90
20534;DHT22;12929;56.822;26.056;2023-08-12T12:45:57;21.20;99.90
20534;DHT22;12929;56.822;26.056;2023-08-12T12:48:25;21.00;99.90
20534;DHT22;12929;56.822;26.056;2023-08-12T12:50:54;21.00;99.90
20534;DHT22;12929;56.822;26.056;2023-08-12T12:53:23;20.80;99.90
20534;DHT22;12929;56.822;26.056;2023-08-12T12:55:52;20.70;99.90
20534;DHT22;12929;56.822;26.056;2023-08-12T12:58:25;20.60;99.90
20534;DHT22;12929;56.822;26.056;2023-08-12T13:00:53;20.60;99.90
20534;DHT22;12929;56.822;26.056;2023-08-12T13:03:21;20.50;99.90
20534;DHT22;12929;56.822;26.056;2023-08-12T13:05:49;20.50;99.90
20534;DHT22;12929;56.822;26.056;2023-08-12T13:08:18;20.50;99.90
20534;DHT22;12929;56.822;26.056;2023-08-12T13:10:46;20.40;99.90
20534;DHT22;12929;56.822;26.056;2023-08-12T13:13:15;20.40;99.90
20534;DHT22;12929;56.822;26.056;2023-08-12T13:15:45;20.40;99.90
20534;DHT22;12929;56.822;26.056;2023-08-12T13:18:14;20.40;99.90
20534;DHT22;12929;56.822;26.056;2023-08-12T13:20:42;20.40;99.90
20534;DHT22;12929;56.822;26.056;2023-08-12T13:23:10;20.40;99.90
20534;DHT22;12929;56.822;26.056;2023-08-12T13:25:40;20.30;99.90
20534;DHT22;12929;56.822;26.056;2023-08-12T13:28:10;20.30;99.90
20534;DHT22;12929;56.822;26.056;2023-08-12T13:30:41;20.40;99.90
20534;DHT22;12929;56.822;26.056;2023-08-12T13:33:08;20.30;99.90
20534;DHT22;12929;56.822;26.056;2023-08-12T13:35:36;20.40;99.90
20534;DHT22;12929;56.822;26.056;2023-08-12T13:38:04;20.30;99.90
20534;DHT22;12929;56.822;26.056;2023-08-12T13:40:34;20.30;99.90
20534;DHT22;12929;56.822;26.056;2023-08-12T13:43:02;20.30;99.90
20534;DHT22;12929;56.822;26.056;2023-08-12T13:45:31;20.30;99.90
20534;DHT22;12929;56.822;26.056;2023-08-12T13:47:59;20.30;99.90
20534;DHT22;12929;56.822;26.056;2023-08-12T13:50:28;20.30;99.90
20534;DHT22;12929;56.822;26.056;2023-08-12T13:52:55;20.20;99.90
20534;DHT22;12929;56.822;26.056;2023-08-12T13:55:25;20.30;99.90
20534;DHT22;12929;56.822;26.056;2023-08-12T13:57:54;20.30;99.90
20534;DHT22;12929;56.822;26.056;2023-08-12T14:00:22;20.20;99.90
20534;DHT22;12929;56.822;26.056;2023-08-12T14:02:52;20.20;99.90
20534;DHT22;12929;56.822;26.056;2023-08-12T14:05:21;20.20;99.90
20534;DHT22;12929;56.822;26.056;2023-08-12T14:07:49;20.20;99.90
20534;DHT22;12929;56.822;26.056;2023-08-12T14:10:18;20.20;99.90
20534;DHT22;12929;56.822;26.056;2023-08-12T14:12:46;20.20;99.90
20534;DHT22;12929;56.822;26.056;2023-08-12T14:15:19;20.20;99.90
20534;DHT22;12929;56.822;26.056;2023-08-12T14:17:47;20.20;99.90
20534;DHT22;12929;56.822;26.056;2023-08-12T14:20:15;20.30;99.90
20534;DHT22;12929;56.822;26.056;2023-08-12T14:22:43;20.30;99.90
20534;DHT22;12929;56.822;26.056;2023-08-12T14:25:12;20.30;99.90
20534;DHT22;12929;56.822;26.056;2023-08-12T14:27:42;20.30;99.90
20534;DHT22;12929;56.822;26.056;2023-08-12T14:30:10;20.30;99.90
20534;DHT22;12929;56.822;26.056;2023-08-12T14:32:40;20.30;99.90
20534;DHT22;12929;56.822;26.056;2023-08-12T14:35:08;20.30;99.90
20534;DHT22;12929;56.822;26.056;2023-08-12T14:37:35;20.40;99.90
20534;DHT22;12929;56.822;26.056;2023-08-12T14:40:03;20.40;99.90
20534;DHT22;12929;56.822;26.056;2023-08-12T14:42:32;20.40;99.90
20534;DHT22;12929;56.822;26.056;2023-08-12T14:45:00;20.40;99.90
20534;DHT22;12929;56.822;26.056;2023-08-12T14:47:28;20.30;99.90
20534;DHT22;12929;56.822;26.056;2023-08-12T14:49:57;20.30;99.90
20534;DHT22;12929;56.822;26.056;2023-08-12T14:52:28;20.20;99.90
20534;DHT22;12929;56.822;26.056;2023-08-12T14:54:56;20.10;99.90
20534;DHT22;12929;56.822;26.056;2023-08-12T14:57:23;20.00;99.90
20534;DHT22;12929;56.822;26.056;2023-08-12T14:59:52;20.00;99.90
20534;DHT22;12929;56.822;26.056;2023-08-12T15:02:21;20.20;99.90
20534;DHT22;12929;56.822;26.056;2023-08-12T15:04:51;20.40;99.90
20534;DHT22;12929;56.822;26.056;2023-08-12T15:07:20;20.50;99.90
20534;DHT22;12929;56.822;26.056;2023-08-12T15:09:49;20.90;99.90
20534;DHT22;12929;56.822;26.056;2023-08-12T15:12:18;21.30;99.90
20534;DHT22;12929;56.822;26.056;2023-08-12T15:14:46;21.60;99.90
20534;DHT22;12929;56.822;26.056;2023-08-12T15:17:14;21.90;99.90
20534;DHT22;12929;56.822;26.056;2023-08-12T15:19:42;22.00;99.90
20534;DHT22;12929;56.822;26.056;2023-08-12T15:22:10;22.00;99.90
20534;DHT22;12929;56.822;26.056;2023-08-12T15:24:37;22.00;99.90
20534;DHT22;12929;56.822;26.056;2023-08-12T15:27:05;22.00;99.90
20534;DHT22;12929;56.822;26.056;2023-08-12T15:29:33;21.80;99.90
20534;DHT22;12929;56.822;26.056;2023-08-12T15:32:01;22.00;99.90